Terminal Aerodrome Forecast
Issued by NWS

Home | Current Version | Previous Version | Text Only | Print | Product List | Glossary Off
Versions: 1 2 3 4 5 6 7 8 9 10 11 12 13 14

038
FTUS43 KTOP 271133
TAFFOE
TAF
KFOE 271133Z 2712/2812 11005KT 6SM BR SCT080
     FM271300 13009KT P6SM SCT080
     FM271700 16012KT P6SM SCT120
     FM280500 17012KT P6SM SCT250 WS015/19045KT=

USA.gov is the U.S. government's official web portal to all federal, state and local government web resources and services.